createdAt,value
2019-05-03T00:01:49.910Z,23.24
2019-05-03T00:04:24.102Z,23.91
2019-05-03T00:06:59.013Z,23.10
2019-05-03T00:09:33.143Z,22.85
2019-05-03T00:12:06.888Z,22.87
2019-05-03T00:14:41.684Z,22.88
2019-05-03T00:17:15.548Z,23.25
2019-05-03T00:19:49.147Z,22.15
2019-05-03T00:22:23.105Z,22.85
2019-05-03T00:25:05.342Z,22.64
2019-05-03T00:27:32.242Z,21.37
2019-05-03T00:30:07.331Z,21.35
2019-05-03T00:32:42.618Z,22.28
2019-05-03T00:35:17.244Z,21.27
2019-05-03T00:37:52.528Z,20.50
2019-05-03T00:40:25.895Z,20.06
2019-05-03T00:43:02.158Z,19.25
2019-05-03T00:45:35.051Z,19.85
2019-05-03T00:48:08.630Z,19.92
2019-05-03T00:50:42.577Z,20.00
2019-05-03T00:53:18.473Z,18.76
2019-05-03T00:55:52.733Z,18.28
2019-05-03T00:58:26.300Z,18.04
2019-05-03T01:01:00.047Z,18.65
2019-05-03T01:03:33.999Z,18.85
2019-05-03T01:06:11.516Z,19.28
2019-05-03T01:08:45.042Z,18.20
2019-05-03T01:11:18.919Z,17.75
2019-05-03T01:13:52.505Z,17.52
2019-05-03T01:16:26.467Z,17.01
2019-05-03T01:19:02.476Z,17.13
2019-05-03T01:21:37.243Z,16.83
2019-05-03T01:24:12.315Z,16.62
2019-05-03T01:29:28.349Z,17.01
2019-05-03T01:32:02.294Z,16.34
2019-05-03T01:34:42.660Z,15.38
2019-05-03T01:37:17.211Z,16.58
2019-05-03T01:39:52.433Z,16.75
2019-05-03T01:42:25.644Z,16.00
2019-05-03T01:45:01.547Z,15.49
2019-05-03T01:47:34.543Z,15.17
2019-05-03T01:50:08.232Z,15.05
2019-05-03T01:52:42.587Z,15.01
2019-05-03T01:55:19.127Z,15.08
2019-05-03T01:57:53.439Z,15.53
2019-05-03T02:00:27.501Z,15.67
2019-05-03T02:03:02.186Z,15.58
2019-05-03T02:05:36.752Z,15.74
2019-05-03T02:08:12.915Z,14.74
2019-05-03T02:10:47.520Z,14.97
2019-05-03T02:13:22.805Z,14.73
2019-05-03T02:15:58.234Z,15.35
2019-05-03T02:18:31.973Z,15.54
2019-05-03T02:21:05.585Z,15.82
2019-05-03T02:23:39.512Z,16.18
2019-05-03T02:26:13.161Z,16.18
2019-05-03T02:28:47.451Z,15.61
2019-05-03T02:31:23.349Z,14.73
2019-05-03T02:33:58.619Z,15.14
2019-05-03T02:36:33.696Z,14.82
2019-05-03T02:39:09.507Z,14.66
2019-05-03T02:41:47.876Z,14.16
2019-05-03T02:44:19.584Z,13.38
2019-05-03T02:46:56.036Z,14.21
2019-05-03T02:49:28.407Z,14.00
2019-05-03T02:52:02.295Z,14.05
2019-05-03T02:54:36.347Z,12.36
2019-05-03T02:57:10.047Z,12.72
2019-05-03T02:59:45.323Z,12.83
2019-05-03T03:02:19.226Z,13.32
2019-05-03T03:04:56.166Z,12.61
2019-05-03T03:07:31.467Z,13.62
2019-05-03T03:10:17.627Z,13.04
2019-05-03T03:12:55.336Z,12.82
2019-05-03T03:15:36.135Z,12.92
2019-05-03T03:18:11.300Z,12.85
2019-05-03T03:20:48.243Z,12.98
2019-05-03T03:23:28.701Z,13.26
2019-05-03T03:26:06.178Z,13.04
2019-05-03T03:28:46.134Z,13.01
2019-05-03T03:34:12.143Z,13.41
2019-05-03T03:37:04.230Z,12.67
2019-05-03T03:39:32.682Z,12.84
2019-05-03T03:42:08.719Z,12.18
2019-05-03T03:44:42.553Z,12.19
2019-05-03T03:47:18.488Z,12.62
2019-05-03T03:49:55.287Z,12.74
2019-05-03T03:52:31.357Z,11.88
2019-05-03T03:55:06.437Z,12.12
2019-05-03T03:57:40.663Z,12.15
2019-05-03T04:00:16.271Z,11.63
2019-05-03T04:02:49.444Z,12.23
2019-05-03T04:05:25.444Z,11.42
2019-05-03T04:07:58.630Z,12.21
2019-05-03T04:10:35.021Z,11.75
2019-05-03T04:13:08.527Z,11.45
2019-05-03T04:15:45.100Z,11.54
2019-05-03T04:18:19.496Z,12.41
2019-05-03T04:20:55.931Z,11.79
2019-05-03T04:23:29.313Z,11.67
2019-05-03T04:26:03.374Z,11.54
2019-05-03T04:28:38.465Z,11.54
2019-05-03T04:31:15.073Z,11.61
2019-05-03T04:33:48.520Z,11.46
2019-05-03T04:36:22.418Z,11.10
2019-05-03T04:38:56.391Z,11.78
2019-05-03T04:41:30.589Z,11.30
2019-05-03T04:44:08.330Z,11.21
2019-05-03T04:46:46.252Z,11.24
2019-05-03T04:49:20.797Z,11.30
2019-05-03T04:52:01.481Z,11.47
2019-05-03T04:54:35.567Z,11.19
2019-05-03T04:57:34.267Z,11.28
2019-05-03T04:59:56.103Z,11.42
2019-05-03T05:02:31.237Z,10.78
2019-05-03T05:05:05.997Z,10.94
2019-05-03T05:07:40.011Z,11.02
2019-05-03T05:10:15.604Z,11.00
2019-05-03T05:12:50.683Z,10.71
2019-05-03T05:15:26.380Z,10.40
2019-05-03T05:18:00.904Z,10.73
2019-05-03T05:20:35.968Z,10.54
2019-05-03T05:23:09.616Z,10.57
2019-05-03T05:25:44.600Z,10.59
2019-05-03T05:28:19.094Z,10.37
2019-05-03T05:30:54.643Z,10.50
2019-05-03T05:33:28.808Z,10.72
2019-05-03T05:36:04.847Z,10.11
2019-05-03T05:38:38.908Z,10.35
2019-05-03T05:41:12.686Z,10.64
2019-05-03T05:43:46.546Z,10.51
2019-05-03T05:46:20.330Z,10.55
2019-05-03T05:48:55.386Z,10.91
2019-05-03T05:51:28.642Z,11.28
2019-05-03T05:54:02.303Z,10.78
2019-05-03T05:56:36.460Z,10.85
2019-05-03T05:59:10.312Z,10.73
2019-05-03T06:01:45.672Z,10.67
2019-05-03T06:04:19.609Z,10.55
2019-05-03T06:06:55.370Z,10.96
2019-05-03T06:09:29.397Z,10.82
2019-05-03T06:12:04.518Z,10.72
2019-05-03T06:14:38.364Z,10.78
2019-05-03T06:17:14.514Z,11.26
2019-05-03T06:19:47.398Z,10.98
2019-05-03T06:22:21.320Z,11.06
2019-05-03T06:24:56.376Z,10.93
2019-05-03T06:27:30.117Z,11.39
2019-05-03T06:30:04.717Z,11.61
2019-05-03T06:32:38.464Z,11.00
2019-05-03T06:35:12.369Z,11.78
2019-05-03T06:37:47.492Z,11.38
2019-05-03T06:40:25.170Z,11.64
2019-05-03T06:43:08.668Z,11.44
2019-05-03T06:45:46.670Z,10.90
2019-05-03T06:48:17.711Z,11.74
2019-05-03T06:50:52.386Z,11.48
2019-05-03T06:53:25.848Z,11.12
2019-05-03T06:55:59.830Z,11.47
2019-05-03T06:58:36.257Z,10.84
2019-05-03T07:01:11.213Z,10.74
2019-05-03T07:03:45.722Z,10.54
2019-05-03T07:06:33.342Z,10.89
2019-05-03T07:08:56.637Z,10.61
2019-05-03T07:11:30.279Z,10.65
2019-05-03T07:14:05.243Z,11.22
2019-05-03T07:16:38.738Z,11.54
2019-05-03T07:19:14.606Z,11.11
2019-05-03T07:21:47.288Z,10.79
2019-05-03T07:24:20.888Z,10.75
2019-05-03T07:26:55.086Z,10.66
2019-05-03T07:29:29.141Z,10.79
2019-05-03T07:32:05.184Z,10.63
2019-05-03T07:34:39.226Z,10.63
2019-05-03T07:37:14.451Z,10.38
2019-05-03T07:39:49.060Z,11.35
2019-05-03T07:42:22.931Z,11.75
2019-05-03T07:44:57.008Z,10.73
2019-05-03T07:47:30.649Z,11.55
2019-05-03T07:50:05.038Z,11.25
2019-05-03T07:52:59.891Z,13.22
2019-05-03T07:55:35.268Z,11.61
2019-05-03T07:58:10.300Z,11.16
2019-05-03T08:00:44.573Z,11.46
2019-05-03T08:03:18.588Z,11.33
2019-05-03T08:05:52.734Z,11.04
2019-05-03T08:08:28.247Z,12.09
2019-05-03T08:11:05.133Z,12.52
2019-05-03T08:13:46.110Z,13.44
2019-05-03T08:16:20.668Z,12.85
2019-05-03T08:18:55.902Z,14.06
2019-05-03T08:21:31.032Z,14.05
2019-05-03T08:24:04.986Z,13.48
2019-05-03T08:26:39.262Z,12.52
2019-05-03T08:29:18.499Z,12.16
2019-05-03T08:31:49.076Z,12.74
2019-05-03T08:34:23.005Z,12.32
2019-05-03T08:36:56.894Z,13.01
2019-05-03T08:39:31.781Z,13.64
2019-05-03T08:42:07.014Z,14.64
2019-05-03T08:44:42.280Z,15.22
2019-05-03T08:47:16.579Z,15.65
2019-05-03T08:49:55.390Z,15.54
2019-05-03T08:52:36.065Z,17.44
2019-05-03T08:55:11.038Z,16.97
2019-05-03T08:57:46.895Z,16.08
2019-05-03T09:00:21.755Z,16.52
2019-05-03T09:02:55.538Z,16.20
2019-05-03T09:05:30.010Z,14.55
2019-05-03T09:08:05.638Z,16.12
2019-05-03T09:10:40.760Z,15.84
2019-05-03T09:13:14.782Z,15.29
2019-05-03T09:15:49.135Z,15.93
2019-05-03T09:18:22.970Z,15.82
2019-05-03T09:20:57.262Z,15.86
2019-05-03T09:23:31.382Z,16.11
2019-05-03T09:26:06.681Z,16.47
2019-05-03T09:28:40.632Z,16.71
2019-05-03T09:31:15.518Z,13.60
2019-05-03T09:33:50.087Z,14.50
2019-05-03T09:36:25.322Z,13.76
2019-05-03T09:38:59.849Z,13.94
2019-05-03T09:41:34.719Z,14.83
2019-05-03T09:44:10.021Z,15.06
2019-05-03T09:46:44.659Z,15.73
2019-05-03T09:49:18.522Z,15.12
2019-05-03T09:51:54.641Z,15.64
2019-05-03T09:54:27.825Z,15.51
2019-05-03T09:57:01.588Z,15.45
2019-05-03T09:59:37.017Z,15.19
2019-05-03T10:02:12.644Z,15.20
2019-05-03T10:04:46.251Z,16.00
2019-05-03T10:07:20.296Z,16.46
2019-05-03T10:09:55.199Z,17.11
2019-05-03T10:12:31.791Z,16.98
2019-05-03T10:15:09.019Z,17.79
2019-05-03T10:17:45.824Z,18.36
2019-05-03T10:20:18.859Z,17.18
2019-05-03T10:22:54.452Z,18.36
2019-05-03T10:25:27.767Z,18.78
2019-05-03T10:28:01.631Z,19.77
2019-05-03T10:30:35.824Z,19.49
2019-05-03T10:33:09.694Z,19.84
2019-05-03T10:35:44.989Z,19.82
2019-05-03T10:38:21.429Z,20.88
2019-05-03T10:40:55.788Z,21.44
2019-05-03T10:43:29.283Z,21.10
2019-05-03T10:46:04.980Z,22.15
2019-05-03T10:48:38.260Z,22.78
2019-05-03T10:51:12.759Z,22.85
2019-05-03T10:53:48.165Z,23.63
2019-05-03T10:56:24.518Z,24.45
2019-05-03T10:58:57.450Z,24.27
2019-05-03T11:01:32.079Z,24.65
2019-05-03T11:04:07.448Z,24.31
2019-05-03T11:06:45.523Z,24.17
2019-05-03T11:09:20.658Z,24.12
2019-05-03T11:11:55.546Z,24.13
2019-05-03T11:14:29.896Z,24.48
2019-05-03T11:17:06.142Z,23.77
2019-05-03T11:19:45.265Z,24.02
2019-05-03T11:22:19.668Z,24.37
2019-05-03T11:24:56.229Z,25.36
2019-05-03T11:27:35.265Z,25.83
2019-05-03T11:30:11.264Z,25.10
2019-05-03T11:32:52.361Z,25.06
2019-05-03T11:35:28.969Z,25.14
2019-05-03T11:38:05.806Z,25.96
2019-05-03T11:40:42.692Z,26.86
2019-05-03T11:43:16.750Z,28.18
2019-05-03T11:45:51.471Z,28.36
2019-05-03T11:48:28.344Z,28.18
2019-05-03T11:51:07.984Z,27.95
2019-05-03T11:53:45.034Z,27.34
2019-05-03T11:56:30.912Z,27.64
2019-05-03T11:59:02.506Z,28.27
2019-05-03T12:01:37.221Z,27.98
2019-05-03T12:04:12.977Z,28.43
2019-05-03T12:06:47.177Z,28.19
2019-05-03T12:09:21.622Z,28.15
2019-05-03T12:11:55.911Z,28.69
2019-05-03T12:14:31.494Z,28.43
2019-05-03T12:17:18.233Z,28.70
2019-05-03T12:19:52.106Z,28.31
2019-05-03T12:22:27.957Z,28.84
2019-05-03T12:25:02.794Z,28.68
2019-05-03T12:27:37.873Z,28.49
2019-05-03T12:30:15.606Z,29.61
2019-05-03T12:33:36.641Z,29.37
2019-05-03T12:35:51.614Z,29.29
2019-05-03T12:38:29.860Z,29.00
2019-05-03T12:41:06.454Z,28.33
2019-05-03T12:43:41.738Z,27.34
2019-05-03T12:46:16.857Z,26.86
2019-05-03T12:48:51.301Z,27.16
2019-05-03T12:51:26.229Z,25.11
2019-05-03T12:54:00.480Z,26.09
2019-05-03T12:56:35.779Z,25.70
2019-05-03T12:59:10.276Z,25.89
2019-05-03T13:01:46.316Z,25.55
2019-05-03T13:04:20.061Z,25.23
2019-05-03T13:06:54.952Z,25.40
2019-05-03T13:09:29.517Z,25.72
2019-05-03T13:12:05.442Z,24.28
2019-05-03T13:14:38.772Z,24.92
2019-05-03T13:17:15.120Z,24.14
2019-05-03T13:19:48.035Z,24.64
2019-05-03T13:22:22.390Z,25.89
2019-05-03T13:24:58.189Z,25.20
2019-05-03T13:27:31.839Z,26.02
2019-05-03T13:30:09.661Z,26.64
2019-05-03T13:32:54.924Z,27.16
2019-05-03T13:35:44.945Z,27.43
2019-05-03T13:38:35.701Z,26.80
2019-05-03T13:41:16.959Z,26.79
2019-05-03T13:43:54.895Z,26.90
2019-05-03T13:46:30.968Z,26.80
2019-05-03T13:49:10.559Z,28.04
2019-05-03T13:51:45.318Z,27.14
2019-05-03T13:54:20.813Z,26.02
2019-05-03T13:56:56.943Z,27.00
2019-05-03T13:59:31.923Z,26.95
2019-05-03T14:02:15.156Z,27.90
2019-05-03T14:04:50.154Z,27.96
2019-05-03T14:07:19.330Z,27.73
2019-05-03T14:09:55.707Z,28.00
2019-05-03T14:12:30.658Z,29.24
2019-05-03T14:15:05.641Z,27.82
2019-05-03T14:17:40.664Z,27.82
2019-05-03T14:20:18.609Z,27.02
2019-05-03T14:22:56.717Z,29.53
2019-05-03T14:25:34.987Z,27.91
2019-05-03T14:28:09.418Z,28.43
2019-05-03T14:30:45.189Z,27.86
2019-05-03T14:33:28.028Z,28.75
2019-05-03T14:36:01.007Z,29.24
2019-05-03T14:38:37.641Z,28.99
2019-05-03T14:41:18.878Z,28.81
2019-05-03T14:43:55.437Z,29.16
2019-05-03T14:46:32.666Z,27.66
2019-05-03T14:49:05.535Z,29.29
2019-05-03T14:51:56.692Z,29.20
2019-05-03T14:54:34.155Z,29.30
2019-05-03T14:57:07.874Z,29.48
2019-05-03T14:59:42.593Z,30.31
2019-05-03T15:02:16.591Z,29.63
2019-05-03T15:04:50.728Z,30.22
2019-05-03T15:07:26.651Z,30.51
2019-05-03T15:10:00.262Z,30.20
2019-05-03T15:12:35.935Z,29.94
2019-05-03T15:15:10.762Z,29.63
2019-05-03T15:17:45.762Z,30.41
2019-05-03T15:20:20.532Z,29.66
2019-05-03T15:22:56.104Z,30.33
2019-05-03T15:25:34.418Z,29.79
2019-05-03T15:28:07.185Z,30.31
2019-05-03T15:30:41.412Z,30.55
2019-05-03T15:33:15.599Z,28.78
2019-05-03T15:35:49.742Z,30.40
2019-05-03T15:38:23.538Z,30.48
2019-05-03T15:40:57.737Z,30.55
2019-05-03T15:43:31.947Z,29.06
2019-05-03T15:46:06.483Z,29.08
2019-05-03T15:48:42.338Z,29.93
2019-05-03T15:51:17.387Z,29.93
2019-05-03T15:53:51.649Z,29.80
2019-05-03T15:56:26.052Z,28.96
2019-05-03T15:58:59.865Z,29.11
2019-05-03T16:01:35.315Z,28.70
2019-05-03T16:04:10.097Z,29.10
2019-05-03T16:06:44.814Z,29.35
2019-05-03T16:09:19.305Z,29.12
2019-05-03T16:11:55.431Z,28.25
2019-05-03T16:14:28.359Z,28.28
2019-05-03T16:17:04.340Z,29.37
2019-05-03T16:19:37.658Z,28.90
2019-05-03T16:22:14.398Z,28.85
2019-05-03T16:24:48.901Z,28.81
2019-05-03T16:27:24.699Z,27.99
2019-05-03T16:29:58.440Z,29.31
2019-05-03T16:32:34.711Z,29.70
2019-05-03T16:35:11.053Z,29.09
2019-05-03T16:37:46.069Z,29.14
2019-05-03T16:40:19.875Z,28.84
2019-05-03T16:42:53.880Z,28.55
2019-05-03T16:45:30.563Z,29.13
2019-05-03T16:48:04.599Z,30.65
2019-05-03T16:50:38.079Z,29.78
2019-05-03T16:53:16.093Z,30.99
2019-05-03T16:55:50.291Z,30.63
2019-05-03T16:58:24.856Z,31.48
2019-05-03T17:00:59.321Z,31.21
2019-05-03T17:03:40.844Z,31.30
2019-05-03T17:06:11.782Z,30.67
2019-05-03T17:08:46.445Z,32.02
2019-05-03T17:11:20.641Z,30.81
2019-05-03T17:13:57.679Z,31.74
2019-05-03T17:16:50.025Z,31.43
2019-05-03T17:19:24.504Z,32.50
2019-05-03T17:21:59.102Z,32.71
2019-05-03T17:24:32.837Z,32.51
2019-05-03T17:27:07.932Z,30.97
2019-05-03T17:29:42.056Z,32.82
2019-05-03T17:32:15.675Z,29.65
2019-05-03T17:34:52.409Z,30.93
2019-05-03T17:37:26.719Z,30.44
2019-05-03T17:40:01.250Z,28.18
2019-05-03T17:42:35.794Z,27.34
2019-05-03T17:45:10.933Z,26.31
2019-05-03T17:47:45.428Z,26.55
2019-05-03T17:50:19.885Z,26.45
2019-05-03T17:52:54.665Z,26.50
2019-05-03T17:55:29.363Z,26.60
2019-05-03T17:58:04.535Z,26.90
2019-05-03T18:00:41.741Z,26.59
2019-05-03T18:03:16.601Z,25.63
2019-05-03T18:05:51.397Z,25.68
2019-05-03T18:08:25.451Z,26.75
2019-05-03T18:11:01.344Z,26.33
2019-05-03T18:13:35.617Z,26.18
2019-05-03T18:16:09.801Z,26.12
2019-05-03T18:18:45.612Z,26.43
2019-05-03T18:21:19.765Z,26.87
2019-05-03T18:23:54.506Z,26.69
2019-05-03T18:26:29.563Z,26.86
2019-05-03T18:29:05.803Z,26.64
2019-05-03T18:31:40.322Z,27.26
2019-05-03T18:34:19.775Z,26.83
2019-05-03T18:36:49.558Z,26.94
2019-05-03T18:39:25.093Z,26.35
2019-05-03T18:41:59.547Z,26.80
2019-05-03T18:44:34.596Z,26.81
2019-05-03T18:47:09.272Z,26.96
2019-05-03T18:49:44.709Z,26.82
2019-05-03T18:52:19.888Z,27.44
2019-05-03T18:54:56.235Z,28.07
2019-05-03T18:57:31.025Z,28.73
2019-05-03T19:00:08.080Z,27.93
2019-05-03T19:02:40.979Z,28.15
2019-05-03T19:05:15.293Z,27.57
2019-05-03T19:07:50.008Z,27.18
2019-05-03T19:10:27.801Z,28.72
2019-05-03T19:13:01.452Z,27.31
2019-05-03T19:15:35.350Z,27.98
2019-05-03T19:18:09.535Z,28.07
2019-05-03T19:20:43.168Z,29.38
2019-05-03T19:23:16.786Z,28.56
2019-05-03T19:25:50.639Z,28.42
2019-05-03T19:28:24.985Z,28.65
2019-05-03T19:30:58.506Z,28.83
2019-05-03T19:33:34.761Z,28.92
2019-05-03T19:36:08.429Z,29.62
2019-05-03T19:39:01.615Z,28.96
2019-05-03T19:41:36.645Z,28.78
2019-05-03T19:44:10.125Z,28.81
2019-05-03T19:46:44.521Z,28.74
2019-05-03T19:49:18.648Z,27.98
2019-05-03T19:51:54.260Z,28.08
2019-05-03T19:54:27.371Z,28.60
2019-05-03T19:57:00.744Z,29.08
2019-05-03T19:59:34.810Z,29.36
2019-05-03T20:02:09.932Z,29.54
2019-05-03T20:04:43.529Z,27.36
2019-05-03T20:07:16.905Z,29.54
2019-05-03T20:09:50.586Z,28.72
2019-05-03T20:12:24.633Z,29.00
2019-05-03T20:14:58.775Z,27.94
2019-05-03T20:17:34.596Z,27.85
2019-05-03T20:20:09.534Z,27.98
2019-05-03T20:22:45.112Z,29.02
2019-05-03T20:25:19.532Z,27.83
2019-05-03T20:27:53.428Z,27.76
2019-05-03T20:30:27.162Z,27.17
2019-05-03T20:33:00.849Z,27.61
2019-05-03T20:35:35.673Z,27.79
2019-05-03T20:38:09.466Z,28.00
2019-05-03T20:40:44.970Z,28.43
2019-05-03T20:43:18.101Z,27.13
2019-05-03T20:45:54.780Z,27.67
2019-05-03T20:48:27.670Z,27.21
2019-05-03T20:51:03.018Z,28.04
2019-05-03T20:53:37.822Z,27.85
2019-05-03T20:56:11.860Z,28.20
2019-05-03T20:58:45.272Z,28.43
2019-05-03T21:01:19.030Z,28.12
2019-05-03T21:03:54.234Z,27.13
2019-05-03T21:06:35.450Z,27.12
2019-05-03T21:09:05.356Z,28.12
2019-05-03T21:11:39.099Z,27.50
2019-05-03T21:14:12.682Z,27.53
2019-05-03T21:16:47.915Z,27.55
2019-05-03T21:19:21.414Z,27.04
2019-05-03T21:21:55.039Z,28.26
2019-05-03T21:24:34.747Z,28.16
2019-05-03T21:27:09.187Z,27.31
2019-05-03T21:29:45.152Z,27.48
2019-05-03T21:32:17.888Z,26.62
2019-05-03T21:34:51.525Z,26.65
2019-05-03T21:37:25.188Z,27.74
2019-05-03T21:39:58.663Z,27.38
2019-05-03T21:42:32.311Z,27.61
2019-05-03T21:45:06.865Z,26.82
2019-05-03T21:47:40.584Z,26.85
2019-05-03T21:50:15.786Z,26.84
2019-05-03T21:52:49.602Z,27.26
2019-05-03T21:55:24.705Z,26.80
2019-05-03T21:57:57.889Z,25.81
2019-05-03T22:00:32.037Z,25.98
2019-05-03T22:03:05.607Z,27.02
2019-05-03T22:05:51.787Z,24.89
2019-05-03T22:11:14.904Z,24.08
2019-05-03T22:13:48.171Z,25.29
2019-05-03T22:16:21.704Z,24.35
2019-05-03T22:18:55.245Z,24.77
2019-05-03T22:21:29.424Z,25.44
2019-05-03T22:24:04.452Z,24.93
2019-05-03T22:26:38.048Z,24.93
2019-05-03T22:29:14.381Z,24.58
2019-05-03T22:31:48.069Z,25.67
2019-05-03T22:34:25.615Z,24.92
2019-05-03T22:36:56.445Z,25.29
2019-05-03T22:39:29.901Z,23.49
2019-05-03T22:42:04.561Z,24.11
2019-05-03T22:44:39.951Z,23.59
2019-05-03T22:47:14.716Z,22.91
2019-05-03T22:49:48.238Z,22.55
2019-05-03T22:52:21.851Z,22.25
2019-05-03T22:54:55.607Z,23.07
2019-05-03T22:57:29.163Z,22.72
2019-05-03T23:00:06.057Z,22.15
2019-05-03T23:02:37.291Z,21.57
2019-05-03T23:05:11.107Z,21.44
2019-05-03T23:07:46.883Z,23.38
2019-05-03T23:10:19.838Z,22.26
2019-05-03T23:12:54.349Z,21.58
2019-05-03T23:15:29.672Z,22.10
2019-05-03T23:18:04.896Z,21.57
2019-05-03T23:20:38.455Z,20.64
2019-05-03T23:23:14.395Z,21.78
2019-05-03T23:25:47.465Z,23.28
2019-05-03T23:28:21.340Z,22.63
2019-05-03T23:30:55.284Z,22.06
2019-05-03T23:33:28.935Z,22.77
2019-05-03T23:36:04.404Z,23.44
2019-05-03T23:38:37.599Z,22.35
2019-05-03T23:41:11.531Z,23.64
2019-05-03T23:43:45.083Z,23.93
2019-05-03T23:46:18.899Z,24.15
2019-05-03T23:48:52.463Z,23.80
2019-05-03T23:51:26.028Z,23.75
2019-05-03T23:54:00.053Z,25.05
2019-05-03T23:56:35.027Z,24.74
2019-05-03T23:59:08.576Z,24.96
